• Join FlightAware (Why Join?)
  • Login
  • US Flag 
05:05AM EDT


 

Airport Tracker/Info


-or-


 

Live Flight TrackerFlight Track Log ✈ SWA620 ✈ 02-Nov-2013 ✈ KSAN - KPHX

Flight Track Log - Related Links

Times and Time Zones

All times are in EDT time to prevent confusion due to time zone crossing. See the SWA620 flight status page for this flight to view local times or setup timezone preferences in your user account.

Time Position Orientation Groundspeed Altitude Reporting Facility
EDT Latitude Longitude Course Direction KTS MPH feet Rate Location/Type
01:00PM 32.7547 -117.2800 285° West 204 235 3,700  Level Los Angeles Center
01:01PM 32.7131 -117.3289 225° Southwest 244 281 7,100 3,420 Climbing Los Angeles Center
01:02PM 32.6506 -117.2450 131° Southeast 291 335 10,800 3,180 Climbing Los Angeles Center
01:03PM 32.6347 -117.1383 100° East 326 375 13,700 2,700 Climbing Los Angeles Center
01:04PM 32.6175 -117.0264 100° East 340 391 17,000 2,700 Climbing Los Angeles Center
01:05PM 32.8413 -116.4908 82° East  Level Estimated
01:06PM 32.6192 -116.8861 89° East 362 417 20,000  Level Los Angeles Center
01:07PM 32.6322 -116.7583 83° East 388 447 22,200 2,220 Climbing Los Angeles Center
01:08PM 32.6475 -116.6047 83° East 395 455 24,700 2,100 Climbing Los Angeles Center
01:09PM 32.6589 -116.4725 84° East 412 474 26,600 1,080 Climbing Los Angeles Center
01:10PM 32.6725 -116.3356 83° East 428 493 27,000 180 Climbing Los Angeles Center
01:11PM 32.6856 -116.1972 84° East 429 494 27,000  Level Los Angeles Center
01:12PM 32.6986 -116.0589 84° East 428 493 27,000  Level Los Angeles Center
01:13PM 32.7139 -115.8922 84° East 426 490 27,000  Level Los Angeles Center
01:14PM 32.7267 -115.7539 84° East 426 490 27,000  Level Los Angeles Center
01:15PM 32.7394 -115.6150 84° East 425 489 27,000  Level Los Angeles Center
01:16PM 32.7511 -115.4761 84° East 425 489 27,000  Level Los Angeles Center
01:17PM 32.7542 -115.3375 88° East 421 484 27,000  Level Los Angeles Center
01:18PM 32.7592 -115.1706 88° East 422 486 27,000  Level Los Angeles Center
01:19PM 32.7628 -115.0331 88° East 417 480 27,000  Level Los Angeles Center
01:20PM 32.7644 -114.8939 89° East 420 483 27,000  Level Los Angeles Center
01:21PM 32.7675 -114.7556 88° East 419 482 27,000  Level Los Angeles Center
01:22PM 32.7700 -114.6183 89° East 417 480 27,000  Level Los Angeles Center
01:23PM 32.7728 -114.4797 89° East 419 482 27,000  Level Los Angeles Center
01:24PM 32.7744 -114.3156 89° East 414 476 27,000 -120 Level Los Angeles Center
01:25PM 32.7744 -114.1769 90° East 419 482 26,800 -1,020 Descending Los Angeles Center
01:26PM 32.7778 -114.0403 88° East 415 478 25,000 -900 Descending Los Angeles Center
01:27PM 32.7869 -113.9042 85° East 416 479 25,000  Level Los Angeles Center
01:28PM 32.8069 -113.7689 80° East 415 478 25,000  Level Los Angeles Center
01:29PM 32.8556 -113.6344 67° East 446 513 25,000 -60 Level Los Angeles Center
01:30PM 32.9519 -113.5072 48° Northeast 447 514 24,900 -1,080 Descending Los Angeles Center
01:31PM 33.0039 -113.4014 60° Northeast 444 511 22,800 -2,460 Descending Los Angeles Center
01:32PM 33.0733 -113.2556 60° Northeast 422 486 19,900 -2,520 Descending Los Angeles Center
01:33PM 33.1286 -113.1419 60° Northeast 399 459 17,600 -2,280 Descending Los Angeles Center
01:35PM 33.1903 -113.0081 61° Northeast 382 440 14,900 -2,280 Descending Albuquerque Center
01:36PM 33.2397 -112.9033 61° Northeast 368 423 12,700 -1,620 Descending Albuquerque Center
01:37PM 33.2875 -112.8025 60° Northeast 355 409 11,600 -1,320 Descending Albuquerque Center
01:38PM 33.3258 -112.6983 66° East 345 397 10,000 -1,200 Descending Albuquerque Center
01:39PM 33.3650 -112.5950 66° East 313 360 9,200 -960 Descending Albuquerque Center
01:40PM 33.3953 -112.5161 65° Northeast 289 333 8,100 -1,020 Descending Albuquerque Center
01:41PM 33.4264 -112.4300 67° East 283 326 7,100 -1,080 Descending Albuquerque Center
01:42PM 33.4289 -112.3428 88° East 264 304 6,000 -1,080 Descending Albuquerque Center
01:43PM 33.4289 -112.2581 90° East 259 298 4,900 -1,200 Descending Albuquerque Center
01:44PM 33.4289 -112.1736 90° East 206 237 3,600 -1,020 Descending Albuquerque Center
01:45PM 33.4286 -112.1244 90° East 157 181 2,800 -780 Descending Albuquerque Center
01:45PM 33.4333 -112.1000 77° East 128 147 2,400 -720 Descending Phoenix TRACON
01:46PM 33.4333 -112.0500 90° East 133 153 1,700 -480 Descending Phoenix TRACON
01:48PM 33.4222 -111.9956 104° East 136 157 1,200 -360 Descending Albuquerque Center